createdAt,value
2022-11-27T00:00:02.079Z,1.96
2022-11-27T00:02:29.261Z,1.98
2022-11-27T00:04:56.405Z,1.99
2022-11-27T00:07:23.465Z,1.97
2022-11-27T00:09:50.654Z,1.96
2022-11-27T00:12:17.655Z,1.94
2022-11-27T00:14:44.699Z,1.96
2022-11-27T00:17:11.727Z,2.01
2022-11-27T00:19:39.066Z,2.06
2022-11-27T00:22:06.666Z,2.12
2022-11-27T00:24:33.917Z,2.15
2022-11-27T00:27:00.990Z,2.13
2022-11-27T00:29:29.369Z,2.09
2022-11-27T00:31:56.704Z,2.06
2022-11-27T00:34:24.006Z,2.06
2022-11-27T00:36:51.052Z,2.03
2022-11-27T00:39:18.170Z,1.97
2022-11-27T00:41:45.536Z,1.92
2022-11-27T00:44:14.090Z,1.89
2022-11-27T00:46:44.464Z,1.88
2022-11-27T00:49:13.769Z,1.93
2022-11-27T00:51:41.328Z,1.92
2022-11-27T00:54:09.200Z,1.86
2022-11-27T00:56:38.726Z,1.82
2022-11-27T00:59:07.054Z,1.81
2022-11-27T01:01:38.026Z,1.77
2022-11-27T01:04:07.806Z,1.78
2022-11-27T01:06:35.292Z,1.77
2022-11-27T01:09:03.567Z,1.78
2022-11-27T01:11:33.687Z,1.79
2022-11-27T01:14:05.343Z,1.79
2022-11-27T01:16:33.476Z,1.81
2022-11-27T01:19:01.820Z,1.82
2022-11-27T01:21:32.468Z,1.81
2022-11-27T01:24:00.680Z,1.79
2022-11-27T01:26:28.063Z,1.79
2022-11-27T01:28:57.527Z,1.79
2022-11-27T01:31:27.501Z,1.81
2022-11-27T01:33:58.012Z,1.81
2022-11-27T01:36:26.037Z,1.81
2022-11-27T01:38:54.106Z,1.79
2022-11-27T01:41:27.810Z,1.77
2022-11-27T01:44:04.077Z,1.75
2022-11-27T01:46:44.200Z,1.73
2022-11-27T01:49:11.319Z,1.76
2022-11-27T01:51:47.284Z,1.80
2022-11-27T01:54:16.076Z,1.83
2022-11-27T01:56:46.296Z,1.91
2022-11-27T01:59:14.217Z,1.94
2022-11-27T02:01:41.265Z,1.93
2022-11-27T02:04:08.466Z,1.93
2022-11-27T02:06:35.743Z,1.93
2022-11-27T02:09:03.818Z,1.92
2022-11-27T02:11:42.713Z,1.94
2022-11-27T02:14:24.689Z,1.98
2022-11-27T02:17:15.145Z,2.04
2022-11-27T02:20:06.044Z,2.07
2022-11-27T02:22:43.974Z,2.10
2022-11-27T02:25:25.307Z,2.07
2022-11-27T02:27:55.145Z,2.04
2022-11-27T02:30:22.323Z,2.05
2022-11-27T02:32:59.992Z,2.04
2022-11-27T02:35:34.568Z,2.02
2022-11-27T02:38:05.788Z,2.02
2022-11-27T02:40:45.176Z,2.04
2022-11-27T02:43:16.806Z,2.07
2022-11-27T02:45:47.029Z,2.10
2022-11-27T02:48:17.209Z,2.10
2022-11-27T02:50:46.740Z,2.06
2022-11-27T02:53:22.255Z,2.03
2022-11-27T02:55:52.322Z,2.00
2022-11-27T02:58:25.467Z,1.97
2022-11-27T03:00:52.999Z,1.98
2022-11-27T03:03:28.109Z,2.00
2022-11-27T03:06:01.071Z,2.04
2022-11-27T03:08:55.077Z,2.07
2022-11-27T03:11:22.841Z,2.09
2022-11-27T03:13:56.422Z,2.10
2022-11-27T03:16:29.310Z,2.07
2022-11-27T03:19:05.389Z,2.06
2022-11-27T03:21:39.350Z,2.04
2022-11-27T03:24:08.956Z,2.07
2022-11-27T03:26:37.362Z,2.09
2022-11-27T03:29:09.281Z,2.12
2022-11-27T03:31:37.575Z,2.16
2022-11-27T03:34:05.089Z,2.20
2022-11-27T03:36:32.159Z,2.23
2022-11-27T03:38:59.438Z,2.22
2022-11-27T03:41:50.966Z,2.22
2022-11-27T03:44:34.766Z,2.22
2022-11-27T03:47:11.267Z,2.23
2022-11-27T03:50:06.610Z,2.25
2022-11-27T03:52:48.711Z,2.31
2022-11-27T03:55:27.793Z,2.37
2022-11-27T03:58:26.586Z,2.39
2022-11-27T04:00:56.635Z,2.37
2022-11-27T04:03:27.300Z,2.35
2022-11-27T04:05:54.970Z,2.36
2022-11-27T04:08:22.238Z,2.37
2022-11-27T04:10:49.529Z,2.34
2022-11-27T04:13:16.861Z,2.33
2022-11-27T04:15:43.991Z,2.31
2022-11-27T04:18:11.700Z,2.29
2022-11-27T04:20:38.771Z,2.29
2022-11-27T04:23:05.869Z,2.27
2022-11-27T04:25:33.023Z,2.25
2022-11-27T04:28:00.043Z,2.26
2022-11-27T04:30:27.167Z,2.25
2022-11-27T04:32:54.190Z,2.24
2022-11-27T04:35:21.423Z,2.27
2022-11-27T04:37:48.468Z,2.28
2022-11-27T04:40:15.591Z,2.27
2022-11-27T04:42:42.691Z,2.28
2022-11-27T04:45:10.333Z,2.33
2022-11-27T04:47:37.447Z,2.36
2022-11-27T04:50:05.027Z,2.39
2022-11-27T04:52:32.112Z,2.42
2022-11-27T04:55:00.493Z,2.42
2022-11-27T04:57:28.025Z,2.44
2022-11-27T04:59:55.127Z,2.46
2022-11-27T05:02:22.273Z,2.49
2022-11-27T05:04:49.356Z,2.50
2022-11-27T05:07:16.468Z,2.52
2022-11-27T05:09:43.499Z,2.54
2022-11-27T05:12:10.569Z,2.57
2022-11-27T05:14:37.727Z,2.56
2022-11-27T05:17:05.386Z,2.55
2022-11-27T05:19:32.968Z,2.54
2022-11-27T05:22:00.032Z,2.52
2022-11-27T05:24:28.885Z,2.51
2022-11-27T05:26:56.957Z,2.47
2022-11-27T05:29:25.103Z,2.45
2022-11-27T05:31:52.858Z,2.46
2022-11-27T05:34:20.531Z,2.49
2022-11-27T05:36:47.656Z,2.52
2022-11-27T05:39:15.474Z,2.53
2022-11-27T05:41:43.519Z,2.52
2022-11-27T05:44:13.466Z,2.53
2022-11-27T05:46:41.200Z,2.56
2022-11-27T05:49:08.301Z,2.59
2022-11-27T05:51:35.373Z,2.61
2022-11-27T05:54:02.347Z,2.64
2022-11-27T05:56:29.393Z,2.66
2022-11-27T05:58:56.441Z,2.70
2022-11-27T06:01:23.463Z,2.75
2022-11-27T06:03:50.544Z,2.76
2022-11-27T06:06:19.862Z,2.79
2022-11-27T06:08:47.781Z,2.78
2022-11-27T06:11:23.764Z,2.76
2022-11-27T06:13:51.505Z,2.71
2022-11-27T06:16:23.171Z,2.67
2022-11-27T06:18:52.720Z,2.65
2022-11-27T06:21:21.352Z,2.68
2022-11-27T06:23:48.887Z,2.70
2022-11-27T06:26:18.315Z,2.67
2022-11-27T06:28:46.260Z,2.65
2022-11-27T06:31:18.083Z,2.62
2022-11-27T06:33:50.810Z,2.60
2022-11-27T06:36:19.185Z,2.58
2022-11-27T06:38:46.562Z,2.59
2022-11-27T06:41:16.429Z,2.61
2022-11-27T06:43:44.036Z,2.63
2022-11-27T06:46:19.368Z,2.63
2022-11-27T06:48:49.807Z,2.62
2022-11-27T06:51:19.620Z,2.62
2022-11-27T06:53:46.803Z,2.60
2022-11-27T06:56:17.231Z,2.59
2022-11-27T06:58:44.835Z,2.60
2022-11-27T07:01:15.149Z,2.63
2022-11-27T07:03:42.827Z,2.67
2022-11-27T07:06:15.428Z,2.73
2022-11-27T07:08:42.575Z,2.73
2022-11-27T07:11:14.132Z,2.71
2022-11-27T07:13:41.882Z,2.68
2022-11-27T07:16:11.160Z,2.70
2022-11-27T07:18:41.524Z,2.71
2022-11-27T07:21:09.209Z,2.72
2022-11-27T07:23:37.154Z,2.72
2022-11-27T07:26:09.815Z,2.73
2022-11-27T07:28:37.034Z,2.74
2022-11-27T07:31:04.316Z,2.74
2022-11-27T07:33:31.746Z,2.77
2022-11-27T07:36:05.372Z,2.77
2022-11-27T07:38:32.834Z,2.77
2022-11-27T07:41:01.748Z,2.73
2022-11-27T07:43:29.347Z,2.70
2022-11-27T07:45:56.740Z,2.66
2022-11-27T07:48:24.043Z,2.62
2022-11-27T07:50:51.125Z,2.58
2022-11-27T07:53:18.114Z,2.57
2022-11-27T07:55:45.730Z,2.61
2022-11-27T07:58:12.723Z,2.64
2022-11-27T08:00:39.863Z,2.63
2022-11-27T08:03:06.896Z,2.61
2022-11-27T08:05:35.788Z,2.59
2022-11-27T08:08:04.522Z,2.57
2022-11-27T08:10:34.978Z,2.58
2022-11-27T08:13:02.053Z,2.63
2022-11-27T08:15:29.280Z,2.69
2022-11-27T08:17:56.279Z,2.75
2022-11-27T08:20:23.844Z,2.82
2022-11-27T08:22:50.960Z,2.88
2022-11-27T08:25:18.239Z,2.88
2022-11-27T08:27:46.492Z,2.87
2022-11-27T08:30:13.854Z,2.87
2022-11-27T08:32:42.968Z,2.83
2022-11-27T08:35:11.654Z,2.82
2022-11-27T08:37:39.060Z,2.82
2022-11-27T08:40:06.770Z,2.80
2022-11-27T08:42:33.878Z,2.79
2022-11-27T08:45:00.897Z,2.78
2022-11-27T08:47:27.945Z,2.77
2022-11-27T08:49:54.919Z,2.76
2022-11-27T08:52:21.950Z,2.77
2022-11-27T08:54:51.994Z,2.76
2022-11-27T08:57:23.126Z,2.78
2022-11-27T08:59:50.230Z,2.84
2022-11-27T09:02:17.254Z,2.90
2022-11-27T09:04:44.349Z,2.97
2022-11-27T09:07:14.412Z,3.02
2022-11-27T09:09:41.681Z,3.04
2022-11-27T09:12:08.722Z,3.02
2022-11-27T09:14:36.235Z,3.00
2022-11-27T09:17:03.590Z,2.97
2022-11-27T09:19:30.707Z,2.95
2022-11-27T09:21:57.835Z,2.98
2022-11-27T09:24:25.004Z,3.00
2022-11-27T09:26:52.169Z,3.01
2022-11-27T09:29:19.381Z,3.01
2022-11-27T09:31:46.627Z,3.00
2022-11-27T09:34:14.099Z,2.98
2022-11-27T09:36:41.094Z,2.95
2022-11-27T09:39:08.150Z,2.95
2022-11-27T09:41:46.458Z,2.96
2022-11-27T09:44:35.041Z,3.00
2022-11-27T09:47:12.444Z,3.05
2022-11-27T09:50:00.549Z,3.12
2022-11-27T09:52:39.980Z,3.18
2022-11-27T09:55:42.109Z,3.22
2022-11-27T09:58:25.637Z,3.18
2022-11-27T10:00:52.783Z,3.15
2022-11-27T10:03:27.751Z,3.15
2022-11-27T10:06:11.872Z,3.17
2022-11-27T10:08:52.540Z,3.20
2022-11-27T10:11:30.718Z,3.24
2022-11-27T10:14:07.878Z,3.32
2022-11-27T10:16:50.195Z,3.36
2022-11-27T10:19:39.629Z,3.39
2022-11-27T10:22:19.596Z,3.38
2022-11-27T10:24:48.117Z,3.36
2022-11-27T10:27:23.716Z,3.32
2022-11-27T10:29:52.710Z,3.31
2022-11-27T10:32:53.464Z,3.31
2022-11-27T10:35:16.894Z,3.31
2022-11-27T10:38:11.737Z,3.30
2022-11-27T10:40:52.559Z,3.32
2022-11-27T10:43:21.193Z,3.31
2022-11-27T10:45:55.554Z,3.30
2022-11-27T10:48:23.224Z,3.27
2022-11-27T10:50:50.785Z,3.23
2022-11-27T10:53:29.390Z,3.20
2022-11-27T10:56:11.996Z,3.20
2022-11-27T10:58:56.964Z,3.21
2022-11-27T11:01:26.175Z,3.19
2022-11-27T11:04:35.812Z,3.20
2022-11-27T11:06:57.323Z,3.22
2022-11-27T11:09:36.122Z,3.22
2022-11-27T11:12:18.608Z,3.21
2022-11-27T11:14:54.082Z,3.20
2022-11-27T11:17:30.968Z,3.20
2022-11-27T11:19:58.135Z,3.21
2022-11-27T11:22:25.388Z,3.23
2022-11-27T11:24:53.689Z,3.24
2022-11-27T11:27:25.296Z,3.25
2022-11-27T11:29:59.332Z,3.27
2022-11-27T11:32:31.141Z,3.28
2022-11-27T11:35:03.092Z,3.29
2022-11-27T11:37:39.060Z,3.29
2022-11-27T11:40:27.153Z,3.32
2022-11-27T11:43:00.443Z,3.33
2022-11-27T11:45:32.684Z,3.32
2022-11-27T11:48:20.196Z,3.30
2022-11-27T11:50:55.005Z,3.28
2022-11-27T11:53:35.925Z,3.30
2022-11-27T11:56:38.173Z,3.32
2022-11-27T11:59:31.383Z,3.37
2022-11-27T12:02:40.985Z,3.44
2022-11-27T12:05:23.005Z,3.47
2022-11-27T12:07:56.155Z,3.48
2022-11-27T12:10:30.158Z,3.49
2022-11-27T12:13:30.371Z,3.47
2022-11-27T12:16:31.503Z,3.49
2022-11-27T12:19:04.753Z,3.54
2022-11-27T12:22:02.467Z,3.57
2022-11-27T12:25:07.531Z,3.61
2022-11-27T12:28:06.195Z,3.65
2022-11-27T12:31:03.143Z,3.65
2022-11-27T12:33:51.621Z,3.65
2022-11-27T12:36:50.181Z,3.65
2022-11-27T12:39:40.604Z,3.62
2022-11-27T12:42:34.050Z,3.65
2022-11-27T12:45:17.889Z,3.64
2022-11-27T12:47:53.308Z,3.69
2022-11-27T12:50:24.029Z,3.72
2022-11-27T12:53:03.099Z,3.73
2022-11-27T12:55:33.707Z,3.73
2022-11-27T12:58:06.847Z,3.75
2022-11-27T13:00:41.253Z,3.76
2022-11-27T13:03:25.183Z,3.76
2022-11-27T13:06:02.883Z,3.74
2022-11-27T13:08:52.262Z,3.72
2022-11-27T13:11:26.449Z,3.73
2022-11-27T13:13:59.637Z,3.74
2022-11-27T13:16:33.563Z,3.73
2022-11-27T13:19:06.225Z,3.71
2022-11-27T13:21:36.294Z,3.70
2022-11-27T13:24:04.250Z,3.68
2022-11-27T13:26:57.707Z,3.66
2022-11-27T13:29:30.667Z,3.65
2022-11-27T13:32:02.197Z,3.64
2022-11-27T13:34:31.115Z,3.66
2022-11-27T13:37:02.952Z,3.69
2022-11-27T13:39:32.096Z,3.71
2022-11-27T13:42:21.672Z,3.71
2022-11-27T13:45:01.929Z,3.69
2022-11-27T13:47:36.223Z,3.72
2022-11-27T13:50:16.260Z,3.72
2022-11-27T13:53:05.040Z,3.70
2022-11-27T13:55:35.078Z,3.69
2022-11-27T13:58:03.508Z,3.70
2022-11-27T14:00:32.942Z,3.69
2022-11-27T14:03:00.291Z,3.70
2022-11-27T14:05:37.247Z,3.71
2022-11-27T14:08:04.590Z,3.70
2022-11-27T14:10:33.239Z,3.66
2022-11-27T14:13:07.608Z,3.63
2022-11-27T14:15:37.775Z,3.65
2022-11-27T14:18:06.543Z,3.66
2022-11-27T14:20:37.638Z,3.66
2022-11-27T14:23:12.175Z,3.67
2022-11-27T14:25:39.801Z,3.67
2022-11-27T14:28:19.772Z,3.68
2022-11-27T14:30:52.682Z,3.67
2022-11-27T14:33:31.311Z,3.63
2022-11-27T14:36:01.346Z,3.57
2022-11-27T14:38:29.781Z,3.56
2022-11-27T14:41:15.255Z,3.57
2022-11-27T14:43:42.253Z,3.56
2022-11-27T14:46:16.337Z,3.54
2022-11-27T14:48:50.046Z,3.53
2022-11-27T14:51:21.932Z,3.50
2022-11-27T14:53:50.951Z,3.48
2022-11-27T14:56:18.588Z,3.46
2022-11-27T14:58:54.571Z,3.44
2022-11-27T15:01:36.307Z,3.45
2022-11-27T15:04:06.106Z,3.45
2022-11-27T15:06:39.452Z,3.46
2022-11-27T15:09:30.786Z,3.46
2022-11-27T15:12:19.399Z,3.47
2022-11-27T15:15:01.444Z,3.51
2022-11-27T15:17:35.407Z,3.52
2022-11-27T15:20:12.308Z,3.51
2022-11-27T15:22:39.434Z,3.55
2022-11-27T15:25:27.934Z,3.59
2022-11-27T15:27:55.190Z,3.64
2022-11-27T15:30:22.596Z,3.69
2022-11-27T15:32:51.957Z,3.71
2022-11-27T15:35:23.142Z,3.70
2022-11-27T15:37:51.673Z,3.72
2022-11-27T15:40:28.041Z,3.72
2022-11-27T15:42:55.168Z,3.71
2022-11-27T15:45:23.641Z,3.71
2022-11-27T15:47:58.147Z,3.73
2022-11-27T15:50:25.219Z,3.71
2022-11-27T15:52:52.471Z,3.72
2022-11-27T15:55:19.776Z,3.75
2022-11-27T15:57:47.160Z,3.76
2022-11-27T16:00:15.286Z,3.78
2022-11-27T16:02:42.432Z,3.80
2022-11-27T16:05:09.802Z,3.80
2022-11-27T16:07:36.945Z,3.78
2022-11-27T16:10:04.703Z,3.81
2022-11-27T16:12:31.776Z,3.79
2022-11-27T16:14:58.823Z,3.76
2022-11-27T16:17:25.849Z,3.75
2022-11-27T16:19:52.921Z,3.74
2022-11-27T16:22:20.020Z,3.74
2022-11-27T16:24:47.093Z,3.75
2022-11-27T16:27:14.219Z,3.77
2022-11-27T16:29:41.194Z,3.76
2022-11-27T16:32:08.568Z,3.76
2022-11-27T16:34:35.798Z,3.76
2022-11-27T16:37:03.436Z,3.77
2022-11-27T16:39:30.544Z,3.76
2022-11-27T16:41:57.583Z,3.74
2022-11-27T16:44:24.709Z,3.76
2022-11-27T16:46:53.762Z,3.76
2022-11-27T16:49:21.928Z,3.79
2022-11-27T16:51:50.277Z,3.84
2022-11-27T16:54:17.585Z,3.85
2022-11-27T16:56:46.376Z,3.83
2022-11-27T16:59:14.834Z,3.82
2022-11-27T17:01:43.787Z,3.81
2022-11-27T17:04:18.338Z,3.80
2022-11-27T17:06:47.112Z,3.76
2022-11-27T17:09:14.722Z,3.76
2022-11-27T17:11:45.649Z,3.79
2022-11-27T17:14:12.684Z,3.80
2022-11-27T17:16:41.553Z,3.84
2022-11-27T17:19:13.233Z,3.87
2022-11-27T17:21:41.842Z,3.89
2022-11-27T17:24:15.975Z,3.90
2022-11-27T17:26:48.563Z,3.91
2022-11-27T17:29:18.375Z,3.90
2022-11-27T17:31:45.487Z,3.89
2022-11-27T17:34:15.181Z,3.88
2022-11-27T17:36:44.204Z,3.90
2022-11-27T17:39:13.550Z,3.93
2022-11-27T17:41:41.626Z,3.94
2022-11-27T17:44:08.782Z,3.96
2022-11-27T17:46:37.059Z,3.96
2022-11-27T17:49:06.763Z,3.95
2022-11-27T17:51:35.845Z,3.96
2022-11-27T17:54:04.393Z,3.97
2022-11-27T17:56:34.012Z,3.95
2022-11-27T17:59:01.918Z,3.91
2022-11-27T18:01:30.491Z,3.90
2022-11-27T18:04:04.098Z,3.90
2022-11-27T18:06:32.045Z,3.93
2022-11-27T18:08:59.635Z,3.95
2022-11-27T18:11:30.134Z,3.96
2022-11-27T18:13:59.749Z,3.99
2022-11-27T18:16:30.791Z,4.02
2022-11-27T18:18:59.167Z,4.03
2022-11-27T18:21:31.208Z,4.04
2022-11-27T18:29:34.413Z,4.07
2022-11-27T18:32:01.993Z,4.08
2022-11-27T18:34:29.305Z,4.07
2022-11-27T18:36:59.589Z,4.04
2022-11-27T18:39:27.702Z,4.03
2022-11-27T18:41:54.827Z,4.05
2022-11-27T18:44:22.088Z,4.08
2022-11-27T18:46:49.150Z,4.09
2022-11-27T18:49:16.585Z,4.09
2022-11-27T18:51:43.633Z,4.08
2022-11-27T18:54:10.654Z,4.05
2022-11-27T18:56:38.191Z,4.05
2022-11-27T18:59:07.050Z,4.07
2022-11-27T19:01:41.259Z,4.08
2022-11-27T19:04:11.075Z,4.09
2022-11-27T19:06:39.372Z,4.11
2022-11-27T19:09:06.900Z,4.13
2022-11-27T19:11:35.123Z,4.14
2022-11-27T19:14:03.839Z,4.14
2022-11-27T19:16:36.943Z,4.12
2022-11-27T19:19:05.458Z,4.11
2022-11-27T19:21:34.457Z,4.11
2022-11-27T19:24:03.675Z,4.13
2022-11-27T19:26:34.203Z,4.15
2022-11-27T19:29:05.733Z,4.17
2022-11-27T19:31:34.308Z,4.20
2022-11-27T19:34:03.336Z,4.22
2022-11-27T19:36:32.365Z,4.24
2022-11-27T19:39:05.026Z,4.23
2022-11-27T19:41:33.134Z,4.23
2022-11-27T19:44:04.866Z,4.22
2022-11-27T19:46:37.317Z,4.22
2022-11-27T19:49:07.923Z,4.20
2022-11-27T19:51:37.609Z,4.18
2022-11-27T19:54:10.022Z,4.19
2022-11-27T19:56:40.298Z,4.22
2022-11-27T19:59:08.572Z,4.23
2022-11-27T20:01:37.860Z,4.26
2022-11-27T20:04:05.777Z,4.27
2022-11-27T20:06:33.209Z,4.28
2022-11-27T20:09:03.841Z,4.29
2022-11-27T20:11:34.946Z,4.29
2022-11-27T20:14:04.541Z,4.28
2022-11-27T20:16:33.508Z,4.27
2022-11-27T20:19:02.511Z,4.22
2022-11-27T20:21:29.882Z,4.21
2022-11-27T20:23:58.010Z,4.19
2022-11-27T20:26:27.311Z,4.17
2022-11-27T20:28:55.305Z,4.20
2022-11-27T20:31:28.241Z,4.21
2022-11-27T20:33:58.109Z,4.23
2022-11-27T20:36:25.742Z,4.22
2022-11-27T20:38:55.836Z,4.20
2022-11-27T20:41:24.473Z,4.18
2022-11-27T20:43:57.540Z,4.17
2022-11-27T20:46:25.129Z,4.15
2022-11-27T20:48:53.680Z,4.13
2022-11-27T20:51:22.803Z,4.10
2022-11-27T20:53:50.056Z,4.08
2022-11-27T20:56:20.462Z,4.08
2022-11-27T20:58:48.509Z,4.08
2022-11-27T21:01:31.047Z,4.10
2022-11-27T21:04:01.518Z,4.11
2022-11-27T21:06:32.303Z,4.08
2022-11-27T21:09:01.994Z,4.07
2022-11-27T21:11:31.469Z,4.06
2022-11-27T21:14:03.435Z,4.02
2022-11-27T21:16:33.739Z,3.95
2022-11-27T21:19:05.627Z,3.89
2022-11-27T21:21:33.924Z,3.85
2022-11-27T21:24:01.433Z,3.81
2022-11-27T21:26:28.872Z,3.81
2022-11-27T21:28:56.914Z,3.80
2022-11-27T21:31:26.474Z,3.80
2022-11-27T21:34:04.584Z,3.77
2022-11-27T21:36:34.795Z,3.73
2022-11-27T21:39:05.480Z,3.72
2022-11-27T21:41:32.759Z,3.73
2022-11-27T21:44:02.059Z,3.77
2022-11-27T21:46:29.850Z,3.80
2022-11-27T21:49:00.123Z,3.85
2022-11-27T21:51:29.067Z,3.89
2022-11-27T21:53:58.623Z,3.95
2022-11-27T21:56:27.419Z,3.99
2022-11-27T21:58:54.714Z,4.01
2022-11-27T22:01:24.180Z,4.01
2022-11-27T22:03:54.242Z,4.01
2022-11-27T22:06:23.284Z,4.00
2022-11-27T22:08:51.623Z,3.98
2022-11-27T22:11:21.917Z,3.97
2022-11-27T22:13:49.602Z,3.97
2022-11-27T22:16:19.754Z,3.99
2022-11-27T22:18:48.536Z,4.00
2022-11-27T22:21:16.683Z,4.01
2022-11-27T22:23:44.244Z,4.03
2022-11-27T22:26:17.233Z,4.05
2022-11-27T22:28:45.330Z,4.05
2022-11-27T22:31:19.341Z,4.05
2022-11-27T22:33:47.004Z,4.03
2022-11-27T22:36:21.885Z,4.00
2022-11-27T22:38:51.240Z,3.96
2022-11-27T22:41:20.259Z,3.91
2022-11-27T22:43:47.696Z,3.91
2022-11-27T22:46:18.893Z,3.93
2022-11-27T22:48:45.993Z,3.95
2022-11-27T22:51:13.673Z,3.94
2022-11-27T22:53:40.821Z,3.95
2022-11-27T22:56:12.044Z,3.96
2022-11-27T22:58:41.760Z,3.95
2022-11-27T23:01:14.333Z,3.95
2022-11-27T23:03:41.723Z,3.95
2022-11-27T23:06:15.162Z,3.92
2022-11-27T23:08:45.000Z,3.90
2022-11-27T23:11:21.187Z,3.88
2022-11-27T23:13:50.058Z,3.91
2022-11-27T23:16:18.889Z,3.92
2022-11-27T23:18:46.788Z,3.92
2022-11-27T23:21:16.857Z,3.96
2022-11-27T23:23:44.416Z,4.00
2022-11-27T23:26:18.548Z,4.02
2022-11-27T23:28:47.037Z,4.02
2022-11-27T23:31:33.494Z,4.03
2022-11-27T23:34:02.329Z,4.03
2022-11-27T23:36:31.375Z,4.01
2022-11-27T23:39:03.771Z,3.98
2022-11-27T23:41:31.687Z,3.95
2022-11-27T23:43:59.040Z,3.95
2022-11-27T23:46:28.629Z,3.95
2022-11-27T23:48:57.373Z,3.97
2022-11-27T23:51:27.848Z,3.98
2022-11-27T23:53:55.561Z,3.99
2022-11-27T23:56:25.195Z,4.02
2022-11-27T23:58:54.419Z,4.03
